createdAt,value
2023-03-20T00:00:31.268Z,84.04
2023-03-20T00:01:53.245Z,83.84
2023-03-20T00:02:56.720Z,83.97
2023-03-20T00:03:59.799Z,84.21
2023-03-20T00:05:02.750Z,84.35
2023-03-20T00:06:06.266Z,84.16
2023-03-20T00:07:13.134Z,84.41
2023-03-20T00:08:16.291Z,84.85
2023-03-20T00:09:19.200Z,84.26
2023-03-20T00:10:25.471Z,84.41
2023-03-20T00:11:33.143Z,84.51
2023-03-20T00:12:36.237Z,84.38
2023-03-20T00:13:39.146Z,84.86
2023-03-20T00:14:42.160Z,84.73
2023-03-20T00:15:45.540Z,84.62
2023-03-20T00:16:50.616Z,84.99
2023-03-20T00:17:54.345Z,84.74
2023-03-20T00:18:57.874Z,85.00
2023-03-20T00:20:00.949Z,84.73
2023-03-20T00:21:03.985Z,85.00
2023-03-20T00:22:06.966Z,85.00
2023-03-20T00:23:10.243Z,85.04
2023-03-20T00:24:14.202Z,84.91
2023-03-20T00:25:20.758Z,85.10
2023-03-20T00:26:33.992Z,85.48
2023-03-20T00:27:37.748Z,85.45
2023-03-20T00:28:46.248Z,85.46
2023-03-20T00:29:49.095Z,85.52
2023-03-20T00:30:52.117Z,85.52
2023-03-20T00:31:55.965Z,85.68
2023-03-20T00:32:59.727Z,85.80
2023-03-20T00:34:07.356Z,85.49
2023-03-20T00:35:37.301Z,86.05
2023-03-20T00:36:41.102Z,85.67
2023-03-20T00:37:44.169Z,85.80
2023-03-20T00:38:47.662Z,86.21
2023-03-20T00:39:50.521Z,86.02
2023-03-20T00:40:53.510Z,86.19
2023-03-20T00:42:00.791Z,86.45
2023-03-20T00:43:04.959Z,86.07
2023-03-20T00:44:42.751Z,86.40
2023-03-20T00:45:46.518Z,86.38
2023-03-20T00:47:02.740Z,86.61
2023-03-20T00:48:06.102Z,86.37
2023-03-20T00:49:11.871Z,86.44
2023-03-20T00:50:17.755Z,86.48
2023-03-20T00:51:20.835Z,87.12
2023-03-20T00:52:24.689Z,87.54
2023-03-20T00:53:27.995Z,87.29
2023-03-20T00:54:31.930Z,87.19
2023-03-20T00:55:36.153Z,87.08
2023-03-20T00:56:45.866Z,87.19
2023-03-20T00:57:50.690Z,87.21
2023-03-20T00:58:54.311Z,87.39
2023-03-20T01:00:06.879Z,87.40
2023-03-20T01:01:09.871Z,87.55
2023-03-20T01:02:13.048Z,87.49
2023-03-20T01:03:24.557Z,87.91
2023-03-20T01:04:35.785Z,87.68
2023-03-20T01:05:39.584Z,87.43
2023-03-20T01:06:43.278Z,87.56
2023-03-20T01:07:46.731Z,87.78
2023-03-20T01:08:49.736Z,87.56
2023-03-20T01:09:52.939Z,87.34
2023-03-20T01:10:58.691Z,87.56
2023-03-20T01:12:03.225Z,88.03
2023-03-20T01:13:17.460Z,87.55
2023-03-20T01:14:20.420Z,87.64
2023-03-20T01:15:27.683Z,87.80
2023-03-20T01:16:30.681Z,87.94
2023-03-20T01:17:33.773Z,88.12
2023-03-20T01:18:37.254Z,87.55
2023-03-20T01:19:40.802Z,87.27
2023-03-20T01:20:43.804Z,87.53
2023-03-20T01:21:46.850Z,87.67
2023-03-20T01:22:50.392Z,88.09
2023-03-20T01:23:53.193Z,88.01
2023-03-20T01:24:56.158Z,87.88
2023-03-20T01:25:59.256Z,87.78
2023-03-20T01:27:04.251Z,87.91
2023-03-20T01:28:19.490Z,87.65
2023-03-20T01:29:25.279Z,88.11
2023-03-20T01:32:00.791Z,88.09
2023-03-20T01:33:13.658Z,88.25
2023-03-20T01:34:17.267Z,88.03
2023-03-20T01:35:22.966Z,87.75
2023-03-20T01:36:26.317Z,88.03
2023-03-20T01:37:29.803Z,87.94
2023-03-20T01:38:36.481Z,87.92
2023-03-20T01:39:39.846Z,87.77
2023-03-20T01:40:51.127Z,87.81
2023-03-20T01:41:54.915Z,87.83
2023-03-20T01:43:00.122Z,87.81
2023-03-20T01:44:19.718Z,87.59
2023-03-20T01:45:30.030Z,87.92
2023-03-20T01:46:38.833Z,87.91
2023-03-20T01:47:49.757Z,87.91
2023-03-20T01:48:53.681Z,87.74
2023-03-20T01:50:26.826Z,87.53
2023-03-20T01:51:36.812Z,87.92
2023-03-20T01:52:45.520Z,87.66
2023-03-20T01:53:53.156Z,87.97
2023-03-20T01:54:56.669Z,87.91
2023-03-20T01:56:01.628Z,87.66
2023-03-20T01:57:18.495Z,87.96
2023-03-20T01:58:31.587Z,87.69
2023-03-20T01:59:44.211Z,88.03
2023-03-20T02:00:49.139Z,87.99
2023-03-20T02:01:52.478Z,87.52
2023-03-20T02:02:56.824Z,87.77
2023-03-20T02:04:26.044Z,87.77
2023-03-20T02:05:34.185Z,87.61
2023-03-20T02:06:40.331Z,87.76
2023-03-20T02:08:10.626Z,87.64
2023-03-20T02:09:13.850Z,87.91
2023-03-20T02:10:19.186Z,87.56
2023-03-20T02:11:41.989Z,87.76
2023-03-20T02:12:47.504Z,87.75
2023-03-20T02:13:57.281Z,87.69
2023-03-20T02:15:02.356Z,87.65
2023-03-20T02:16:31.182Z,87.84
2023-03-20T02:17:43.763Z,88.07
2023-03-20T02:18:50.553Z,87.90
2023-03-20T02:20:12.539Z,87.84
2023-03-20T02:21:36.272Z,87.50
2023-03-20T02:23:06.420Z,87.98
2023-03-20T02:24:48.283Z,87.96
2023-03-20T02:25:57.775Z,87.37
2023-03-20T02:27:33.228Z,87.24
2023-03-20T02:29:01.146Z,87.83
2023-03-20T02:30:41.076Z,88.07
2023-03-20T02:31:58.373Z,88.08
2023-03-20T02:33:23.812Z,87.64
2023-03-20T02:35:09.613Z,88.17
2023-03-20T02:36:42.322Z,87.71
2023-03-20T02:38:06.603Z,88.06
2023-03-20T02:39:25.611Z,87.79
2023-03-20T02:40:54.583Z,87.85
2023-03-20T02:42:08.803Z,88.18
2023-03-20T02:43:26.517Z,88.41
2023-03-20T02:44:44.606Z,88.20
2023-03-20T02:46:14.142Z,88.59
2023-03-20T02:47:26.733Z,88.61
2023-03-20T02:48:33.129Z,88.66
2023-03-20T02:50:05.349Z,88.08
2023-03-20T02:51:18.274Z,88.23
2023-03-20T02:52:33.675Z,87.96
2023-03-20T02:53:54.935Z,88.31
2023-03-20T02:55:21.600Z,88.19
2023-03-20T02:56:51.346Z,87.93
2023-03-20T02:58:00.413Z,88.38
2023-03-20T02:59:12.205Z,88.17
2023-03-20T03:00:35.642Z,88.18
2023-03-20T03:01:44.478Z,88.07
2023-03-20T03:02:59.969Z,88.23
2023-03-20T03:04:12.932Z,88.31
2023-03-20T03:05:24.692Z,88.46
2023-03-20T03:06:32.662Z,88.14
2023-03-20T03:07:39.221Z,88.24
2023-03-20T03:08:50.041Z,88.21
2023-03-20T03:10:00.090Z,88.31
2023-03-20T03:11:08.805Z,88.01
2023-03-20T03:12:18.323Z,88.25
2023-03-20T03:13:27.080Z,88.15
2023-03-20T03:14:37.118Z,88.60
2023-03-20T03:15:48.462Z,88.14
2023-03-20T03:16:52.998Z,88.52
2023-03-20T03:17:58.541Z,88.34
2023-03-20T03:19:09.383Z,88.24
2023-03-20T03:20:26.649Z,88.51
2023-03-20T03:21:33.486Z,88.87
2023-03-20T03:22:36.958Z,88.31
2023-03-20T03:23:47.874Z,88.45
2023-03-20T03:24:53.226Z,88.32
2023-03-20T03:26:01.155Z,88.47
2023-03-20T03:27:17.669Z,88.48
2023-03-20T03:28:37.648Z,88.97
2023-03-20T03:29:42.459Z,88.87
2023-03-20T03:30:46.746Z,89.07
2023-03-20T03:31:49.685Z,88.96
2023-03-20T03:33:29.960Z,89.53
2023-03-20T03:34:35.052Z,89.40
2023-03-20T03:35:39.212Z,89.73
2023-03-20T03:36:54.556Z,90.07
2023-03-20T03:37:57.599Z,90.06
2023-03-20T03:39:19.526Z,90.19
2023-03-20T03:40:44.785Z,90.15
2023-03-20T03:41:54.037Z,90.32
2023-03-20T03:43:21.389Z,90.54
2023-03-20T03:44:48.657Z,90.52
2023-03-20T03:46:06.301Z,90.53
2023-03-20T03:47:21.599Z,90.96
2023-03-20T03:48:32.908Z,91.21
2023-03-20T03:49:44.088Z,91.03
2023-03-20T03:51:11.111Z,91.02
2023-03-20T03:52:23.627Z,90.89
2023-03-20T03:53:34.752Z,91.43
2023-03-20T03:54:53.447Z,91.42
2023-03-20T03:56:12.757Z,91.53
2023-03-20T03:57:20.594Z,91.86
2023-03-20T03:58:33.242Z,91.55
2023-03-20T03:59:40.435Z,91.48
2023-03-20T04:00:48.043Z,91.82
2023-03-20T04:01:52.531Z,91.91
2023-03-20T04:02:58.300Z,92.18
2023-03-20T04:04:06.285Z,92.05
2023-03-20T04:05:10.417Z,92.02
2023-03-20T04:06:15.957Z,92.08
2023-03-20T04:07:19.393Z,92.16
2023-03-20T04:08:22.427Z,92.10
2023-03-20T04:09:25.426Z,92.66
2023-03-20T04:10:28.602Z,92.47
2023-03-20T04:11:31.799Z,92.02
2023-03-20T04:12:40.675Z,92.59
2023-03-20T04:13:49.002Z,92.32
2023-03-20T04:14:51.982Z,92.44
2023-03-20T04:15:57.964Z,92.61
2023-03-20T04:17:02.910Z,92.91
2023-03-20T04:18:14.708Z,92.93
2023-03-20T04:19:17.779Z,92.88
2023-03-20T04:20:22.823Z,93.14
2023-03-20T04:21:25.882Z,93.01
2023-03-20T04:22:28.932Z,93.06
2023-03-20T04:23:35.710Z,92.89
2023-03-20T04:24:38.962Z,93.27
2023-03-20T04:25:42.205Z,93.15
2023-03-20T04:26:46.900Z,93.56
2023-03-20T04:27:50.425Z,93.48
2023-03-20T04:29:11.136Z,93.44
2023-03-20T04:30:34.315Z,93.69
2023-03-20T04:32:09.896Z,93.49
2023-03-20T04:33:32.821Z,93.36
2023-03-20T04:34:56.482Z,93.53
2023-03-20T04:36:14.035Z,93.21
2023-03-20T04:37:17.091Z,93.27
2023-03-20T04:38:34.752Z,93.26
2023-03-20T04:39:38.075Z,92.91
2023-03-20T04:40:41.279Z,92.98
2023-03-20T04:41:44.636Z,92.95
2023-03-20T04:42:47.634Z,93.40
2023-03-20T04:43:50.659Z,93.31
2023-03-20T04:44:53.810Z,92.84
2023-03-20T04:45:58.725Z,93.24
2023-03-20T04:47:02.017Z,92.65
2023-03-20T04:48:07.137Z,92.17
2023-03-20T04:49:10.615Z,92.08
2023-03-20T04:50:14.302Z,92.51
2023-03-20T04:51:17.180Z,92.29
2023-03-20T04:52:24.677Z,92.85
2023-03-20T04:53:28.058Z,92.86
2023-03-20T04:54:31.728Z,92.93
2023-03-20T04:55:34.877Z,92.45
2023-03-20T04:56:38.026Z,92.65
2023-03-20T04:57:59.414Z,92.80
2023-03-20T04:59:03.322Z,92.52
2023-03-20T05:00:06.815Z,92.65
2023-03-20T05:01:09.837Z,92.51
2023-03-20T05:02:15.053Z,92.26
2023-03-20T05:03:17.964Z,92.56
2023-03-20T05:04:21.523Z,92.44
2023-03-20T05:05:25.198Z,92.39
2023-03-20T05:06:29.012Z,92.31
2023-03-20T05:07:32.845Z,92.25
2023-03-20T05:08:38.569Z,92.02
2023-03-20T05:09:42.191Z,92.10
2023-03-20T05:10:45.548Z,92.34
2023-03-20T05:12:11.443Z,92.22
2023-03-20T05:13:14.250Z,92.42
2023-03-20T05:14:40.325Z,92.31
2023-03-20T05:16:09.600Z,92.20
2023-03-20T05:17:18.473Z,92.03
2023-03-20T05:18:47.614Z,92.34
2023-03-20T05:20:07.770Z,92.50
2023-03-20T05:21:22.285Z,92.65
2023-03-20T05:22:48.995Z,92.44
2023-03-20T05:24:10.699Z,92.73
2023-03-20T05:25:26.664Z,92.97
2023-03-20T05:26:55.497Z,92.67
2023-03-20T05:28:21.282Z,93.04
2023-03-20T05:29:50.294Z,92.96
2023-03-20T05:31:09.048Z,92.90
2023-03-20T05:32:28.217Z,93.14
2023-03-20T05:33:43.589Z,93.12
2023-03-20T05:34:54.916Z,92.96
2023-03-20T05:36:10.072Z,93.19
2023-03-20T05:37:27.211Z,93.74
2023-03-20T05:38:43.499Z,93.71
2023-03-20T05:40:03.294Z,93.14
2023-03-20T05:41:26.022Z,93.39
2023-03-20T05:42:57.851Z,93.48
2023-03-20T05:44:26.975Z,93.52
2023-03-20T05:45:59.011Z,93.58
2023-03-20T05:47:34.583Z,93.57
2023-03-20T05:49:13.229Z,93.32
2023-03-20T05:50:28.647Z,93.70
2023-03-20T05:51:57.952Z,93.42
2023-03-20T05:53:18.637Z,93.68
2023-03-20T05:54:30.727Z,93.24
2023-03-20T05:55:41.565Z,93.63
2023-03-20T05:57:07.191Z,93.38
2023-03-20T05:58:28.273Z,93.45
2023-03-20T05:59:38.773Z,93.35
2023-03-20T06:01:16.542Z,93.13
2023-03-20T06:02:38.410Z,93.39
2023-03-20T06:03:49.068Z,93.34
2023-03-20T06:04:53.335Z,93.15
2023-03-20T06:06:01.466Z,93.10
2023-03-20T06:07:06.398Z,93.39
2023-03-20T06:08:09.504Z,92.75
2023-03-20T06:09:12.335Z,93.23
2023-03-20T06:10:16.210Z,93.49
2023-03-20T06:11:19.333Z,93.15
2023-03-20T06:12:22.783Z,93.01
2023-03-20T06:13:26.191Z,92.69
2023-03-20T06:14:29.166Z,92.79
2023-03-20T06:15:35.863Z,92.53
2023-03-20T06:16:47.058Z,92.78
2023-03-20T06:17:50.865Z,92.49
2023-03-20T06:18:53.913Z,92.55
2023-03-20T06:19:58.512Z,92.40
2023-03-20T06:21:02.554Z,92.57
2023-03-20T06:22:05.890Z,92.63
2023-03-20T06:23:09.455Z,91.93
2023-03-20T06:24:12.538Z,92.16
2023-03-20T06:25:16.391Z,92.28
2023-03-20T06:26:20.431Z,92.33
2023-03-20T06:27:31.856Z,92.15
2023-03-20T06:28:35.425Z,91.99
2023-03-20T06:29:41.794Z,91.98
2023-03-20T06:30:53.480Z,91.85
2023-03-20T06:31:58.171Z,92.06
2023-03-20T06:33:07.020Z,92.02
2023-03-20T06:34:15.110Z,91.88
2023-03-20T06:35:21.215Z,91.92
2023-03-20T06:36:25.521Z,91.83
2023-03-20T06:37:32.384Z,91.73
2023-03-20T06:38:42.260Z,91.59
2023-03-20T06:39:48.724Z,91.54
2023-03-20T06:40:51.804Z,91.62
2023-03-20T06:41:55.105Z,91.47
2023-03-20T06:42:59.746Z,91.34
2023-03-20T06:44:10.754Z,91.36
2023-03-20T06:45:40.244Z,91.49
2023-03-20T06:46:53.551Z,91.54
2023-03-20T06:47:56.449Z,91.57
2023-03-20T06:48:59.460Z,91.42
2023-03-20T06:50:02.485Z,91.41
2023-03-20T06:51:08.172Z,91.52
2023-03-20T06:52:21.614Z,91.41
2023-03-20T06:53:32.947Z,91.52
2023-03-20T06:54:45.030Z,91.59
2023-03-20T06:55:51.701Z,91.48
2023-03-20T06:56:54.729Z,91.31
2023-03-20T06:57:58.147Z,91.28
2023-03-20T06:59:01.308Z,91.23
2023-03-20T07:00:06.343Z,91.08
2023-03-20T07:01:17.312Z,91.19
2023-03-20T07:02:20.948Z,90.79
2023-03-20T07:03:23.859Z,90.79
2023-03-20T07:04:27.734Z,90.96
2023-03-20T07:05:34.197Z,90.90
2023-03-20T07:06:38.894Z,90.62
2023-03-20T07:07:42.327Z,90.60
2023-03-20T07:08:45.527Z,90.63
2023-03-20T07:09:48.715Z,90.63
2023-03-20T07:10:51.797Z,90.41
2023-03-20T07:11:55.008Z,90.48
2023-03-20T07:12:58.995Z,90.43
2023-03-20T07:14:02.398Z,90.14
2023-03-20T07:15:23.272Z,90.17
2023-03-20T07:16:26.439Z,90.47
2023-03-20T07:17:29.930Z,90.33
2023-03-20T07:18:33.575Z,90.11
2023-03-20T07:19:38.233Z,89.71
2023-03-20T07:20:41.642Z,89.46
2023-03-20T07:21:45.039Z,89.57
2023-03-20T07:22:48.798Z,89.68
2023-03-20T07:23:54.620Z,89.57
2023-03-20T07:24:58.113Z,89.46
2023-03-20T07:26:01.598Z,88.99
2023-03-20T07:27:04.844Z,88.99
2023-03-20T07:28:08.972Z,88.84
2023-03-20T07:29:14.009Z,88.95
2023-03-20T07:30:19.290Z,88.96
2023-03-20T07:31:25.918Z,89.25
2023-03-20T07:32:58.575Z,89.02
2023-03-20T07:34:04.669Z,89.13
2023-03-20T07:35:10.208Z,89.09
2023-03-20T07:36:16.647Z,89.32
2023-03-20T07:37:20.269Z,89.17
2023-03-20T07:38:33.621Z,88.69
2023-03-20T07:39:43.356Z,88.68
2023-03-20T07:41:06.819Z,88.27
2023-03-20T07:42:11.348Z,88.42
2023-03-20T07:43:20.782Z,88.19
2023-03-20T07:44:35.953Z,88.14
2023-03-20T07:45:44.406Z,88.01
2023-03-20T07:46:47.927Z,87.78
2023-03-20T07:47:51.459Z,87.61
2023-03-20T07:48:54.333Z,87.06
2023-03-20T07:49:57.172Z,86.66
2023-03-20T07:50:59.943Z,86.56
2023-03-20T07:52:03.269Z,86.53
2023-03-20T07:53:06.251Z,86.11
2023-03-20T07:54:09.108Z,85.83
2023-03-20T07:55:13.150Z,85.96
2023-03-20T07:56:16.043Z,85.76
2023-03-20T07:57:18.954Z,85.26
2023-03-20T07:58:22.590Z,85.36
2023-03-20T07:59:25.442Z,85.46
2023-03-20T08:00:28.531Z,85.29
2023-03-20T08:01:31.395Z,85.33
2023-03-20T08:02:34.822Z,85.37
2023-03-20T08:03:39.654Z,85.20
2023-03-20T08:04:43.509Z,85.13
2023-03-20T08:05:47.534Z,85.11
2023-03-20T08:06:51.773Z,85.18
2023-03-20T08:07:55.027Z,85.13
2023-03-20T08:08:57.966Z,85.06
2023-03-20T08:10:00.938Z,84.84
2023-03-20T08:11:04.046Z,84.73
2023-03-20T08:12:07.360Z,84.59
2023-03-20T08:13:10.513Z,84.52
2023-03-20T08:14:13.429Z,84.54
2023-03-20T08:15:16.770Z,84.47
2023-03-20T08:16:26.830Z,84.60
2023-03-20T08:17:29.686Z,84.46
2023-03-20T08:18:33.215Z,84.39
2023-03-20T08:19:36.462Z,84.45
2023-03-20T08:20:39.306Z,84.28
2023-03-20T08:21:42.197Z,84.46
2023-03-20T08:22:45.742Z,84.43
2023-03-20T08:23:48.799Z,84.45
2023-03-20T08:24:51.593Z,84.32
2023-03-20T08:25:54.410Z,84.41
2023-03-20T08:26:57.608Z,84.30
2023-03-20T08:28:01.791Z,84.19
2023-03-20T08:29:04.847Z,84.24
2023-03-20T08:30:09.581Z,84.04
2023-03-20T08:31:12.649Z,84.23
2023-03-20T08:32:15.604Z,84.31
2023-03-20T08:33:19.071Z,84.20
2023-03-20T08:34:24.051Z,83.77
2023-03-20T08:35:33.351Z,84.01
2023-03-20T08:36:48.248Z,84.25
2023-03-20T08:37:51.052Z,83.99
2023-03-20T08:38:53.879Z,84.10
2023-03-20T08:39:56.975Z,84.22
2023-03-20T08:40:59.817Z,84.02
2023-03-20T08:42:02.668Z,84.07
2023-03-20T08:43:05.669Z,84.10
2023-03-20T08:44:08.537Z,84.11
2023-03-20T08:45:11.962Z,83.98
2023-03-20T08:46:15.021Z,84.02
2023-03-20T08:47:17.849Z,84.04
2023-03-20T08:48:21.207Z,83.73
2023-03-20T08:49:24.454Z,83.64
2023-03-20T08:50:27.687Z,83.49
2023-03-20T08:51:30.928Z,83.74
2023-03-20T08:52:33.815Z,83.87
2023-03-20T08:53:37.158Z,83.66
2023-03-20T08:54:39.960Z,83.59
2023-03-20T08:55:49.141Z,83.33
2023-03-20T08:56:52.063Z,83.27
2023-03-20T08:57:57.360Z,82.93
2023-03-20T08:59:00.162Z,82.90
2023-03-20T09:00:04.411Z,83.15
2023-03-20T09:01:09.380Z,83.28
2023-03-20T09:02:12.808Z,83.31
2023-03-20T09:03:18.973Z,83.18
2023-03-20T09:04:21.848Z,83.11
2023-03-20T09:05:24.649Z,83.03
2023-03-20T09:06:27.479Z,83.02
2023-03-20T09:07:30.298Z,83.10
2023-03-20T09:08:33.170Z,82.83
2023-03-20T09:09:36.299Z,82.67
2023-03-20T09:10:40.736Z,82.67
2023-03-20T09:11:43.662Z,82.06
2023-03-20T09:12:46.875Z,82.15
2023-03-20T09:13:49.909Z,82.19
2023-03-20T09:14:52.847Z,82.40
2023-03-20T09:15:56.943Z,82.04
2023-03-20T09:16:59.965Z,80.74
2023-03-20T09:18:04.003Z,81.01
2023-03-20T09:19:07.070Z,81.42
2023-03-20T09:20:10.778Z,81.25
2023-03-20T09:21:13.640Z,80.94
2023-03-20T09:22:19.640Z,81.39
2023-03-20T09:23:22.913Z,81.48
2023-03-20T09:24:25.847Z,81.39
2023-03-20T09:25:28.862Z,80.35
2023-03-20T09:26:31.645Z,80.73
2023-03-20T09:27:34.487Z,80.51
2023-03-20T09:28:37.324Z,79.73
2023-03-20T09:29:41.491Z,78.17
2023-03-20T09:30:45.409Z,78.55
2023-03-20T09:31:48.239Z,78.55
2023-03-20T09:32:51.626Z,78.76
2023-03-20T09:33:54.468Z,79.14
2023-03-20T09:34:57.282Z,78.24
2023-03-20T09:36:00.720Z,78.13
2023-03-20T09:37:04.236Z,77.29
2023-03-20T09:38:07.446Z,77.51
2023-03-20T09:39:10.361Z,76.84
2023-03-20T09:40:27.847Z,76.61
2023-03-20T09:41:49.184Z,76.02
2023-03-20T09:43:02.834Z,76.10
2023-03-20T09:44:17.655Z,75.78
2023-03-20T09:45:30.875Z,76.15
2023-03-20T09:46:39.459Z,76.00
2023-03-20T09:48:04.165Z,76.19
2023-03-20T09:49:17.679Z,75.35
2023-03-20T09:50:36.381Z,74.84
2023-03-20T09:51:49.447Z,73.49
2023-03-20T09:53:07.351Z,73.21
2023-03-20T09:54:20.946Z,72.89
2023-03-20T09:55:31.918Z,72.73
2023-03-20T09:56:35.409Z,72.88
2023-03-20T09:57:42.719Z,71.97
2023-03-20T09:58:53.499Z,71.92
2023-03-20T10:00:01.569Z,72.19
2023-03-20T10:01:06.894Z,72.72
2023-03-20T10:02:24.556Z,72.04
2023-03-20T10:03:56.958Z,72.41
2023-03-20T10:04:59.777Z,71.63
2023-03-20T10:06:12.068Z,72.06
2023-03-20T10:07:17.266Z,72.12
2023-03-20T10:08:24.754Z,72.48
2023-03-20T10:09:31.856Z,72.52
2023-03-20T10:10:42.296Z,72.01
2023-03-20T10:12:04.094Z,72.19
2023-03-20T10:13:45.738Z,71.63
2023-03-20T10:15:08.286Z,72.06
2023-03-20T10:16:55.693Z,72.43
2023-03-20T10:18:17.461Z,72.22
2023-03-20T10:19:28.050Z,71.81
2023-03-20T10:20:45.654Z,71.70
2023-03-20T10:21:56.279Z,71.89
2023-03-20T10:23:06.127Z,71.25
2023-03-20T10:24:22.683Z,71.65
2023-03-20T10:25:42.317Z,71.70
2023-03-20T10:26:50.073Z,71.46
2023-03-20T10:28:00.376Z,71.67
2023-03-20T10:29:20.382Z,71.78
2023-03-20T10:30:35.975Z,71.74
2023-03-20T10:31:58.729Z,71.51
2023-03-20T10:33:19.096Z,71.44
2023-03-20T10:34:49.923Z,71.50
2023-03-20T10:36:21.637Z,70.90
2023-03-20T10:37:50.029Z,71.00
2023-03-20T10:39:03.133Z,71.13
2023-03-20T10:40:27.573Z,70.65
2023-03-20T10:41:36.343Z,69.75
2023-03-20T10:42:44.824Z,70.10
2023-03-20T10:43:51.453Z,69.69
2023-03-20T10:45:47.231Z,69.61
2023-03-20T10:46:53.738Z,69.97
2023-03-20T10:48:00.733Z,69.70
2023-03-20T10:49:14.240Z,68.84
2023-03-20T10:50:25.724Z,68.17
2023-03-20T10:51:46.424Z,68.59
2023-03-20T10:52:54.006Z,69.06
2023-03-20T10:54:02.504Z,69.02
2023-03-20T10:55:12.492Z,68.62
2023-03-20T10:56:27.504Z,68.92
2023-03-20T10:57:34.618Z,68.85
2023-03-20T10:58:40.972Z,68.73
2023-03-20T10:59:56.674Z,68.74
2023-03-20T11:01:00.586Z,68.57
2023-03-20T11:02:11.507Z,68.88
2023-03-20T11:03:23.499Z,68.41
2023-03-20T11:04:26.450Z,68.64
2023-03-20T11:05:32.893Z,68.53
2023-03-20T11:06:47.282Z,68.73
2023-03-20T11:08:07.560Z,68.68
2023-03-20T11:09:17.798Z,68.99
2023-03-20T11:10:20.683Z,69.26
2023-03-20T11:11:26.687Z,69.16
2023-03-20T11:12:33.720Z,69.36
2023-03-20T11:13:44.821Z,69.46
2023-03-20T11:14:47.643Z,69.64
2023-03-20T11:15:53.050Z,69.88
2023-03-20T11:17:02.019Z,69.80
2023-03-20T11:18:07.823Z,69.75
2023-03-20T11:19:11.883Z,69.62
2023-03-20T11:20:14.837Z,69.72
2023-03-20T11:21:24.906Z,69.84
2023-03-20T11:22:28.819Z,69.58
2023-03-20T11:23:35.837Z,69.51
2023-03-20T11:24:47.319Z,69.53
2023-03-20T11:26:12.147Z,69.90
2023-03-20T11:27:24.594Z,69.93
2023-03-20T11:28:36.138Z,70.19
2023-03-20T11:29:43.181Z,70.07
2023-03-20T11:31:04.015Z,70.19
2023-03-20T11:32:34.097Z,70.09
2023-03-20T11:33:45.403Z,70.06
2023-03-20T11:34:48.452Z,70.36
2023-03-20T11:35:55.292Z,70.06
2023-03-20T11:37:10.074Z,69.87
2023-03-20T11:38:17.833Z,70.15
2023-03-20T11:39:27.316Z,70.10
2023-03-20T11:40:32.514Z,70.31
2023-03-20T11:41:42.826Z,70.06
2023-03-20T11:43:00.888Z,69.85
2023-03-20T11:44:04.041Z,69.87
2023-03-20T11:45:16.857Z,69.95
2023-03-20T11:46:23.211Z,69.92
2023-03-20T11:47:28.382Z,69.86
2023-03-20T11:48:40.753Z,70.04
2023-03-20T11:49:50.337Z,69.64
2023-03-20T11:51:07.348Z,69.72
2023-03-20T11:52:15.953Z,70.01
2023-03-20T11:53:33.904Z,70.11
2023-03-20T11:54:38.650Z,70.15
2023-03-20T11:55:42.774Z,70.11
2023-03-20T11:56:56.373Z,70.25
2023-03-20T11:58:01.093Z,70.06
2023-03-20T11:59:14.758Z,69.99
2023-03-20T12:00:24.270Z,69.72
2023-03-20T12:01:28.991Z,69.21
2023-03-20T12:02:32.466Z,69.47
2023-03-20T12:04:27.372Z,69.32
2023-03-20T12:05:39.796Z,69.63
2023-03-20T12:06:50.597Z,70.04
2023-03-20T12:07:58.169Z,70.30
2023-03-20T12:09:12.026Z,70.17
2023-03-20T12:10:15.615Z,70.56
2023-03-20T12:11:46.733Z,70.51
2023-03-20T12:12:49.531Z,70.79
2023-03-20T12:13:57.478Z,70.85
2023-03-20T12:15:18.639Z,70.99
2023-03-20T12:16:25.178Z,71.11
2023-03-20T12:17:56.990Z,71.35
2023-03-20T12:19:03.082Z,71.40
2023-03-20T12:20:15.150Z,71.80
2023-03-20T12:21:27.138Z,71.96
2023-03-20T12:22:49.613Z,71.87
2023-03-20T12:24:04.564Z,71.99
2023-03-20T12:25:20.188Z,70.66
2023-03-20T12:26:34.503Z,69.11
2023-03-20T12:27:46.134Z,68.96
2023-03-20T12:29:03.000Z,68.89
2023-03-20T12:30:20.973Z,68.85
2023-03-20T12:31:26.311Z,68.93
2023-03-20T12:32:52.246Z,68.92
2023-03-20T12:34:01.579Z,69.13
2023-03-20T12:35:17.192Z,69.55
2023-03-20T12:36:36.058Z,68.39
2023-03-20T12:37:39.008Z,67.08
2023-03-20T12:38:43.433Z,65.71
2023-03-20T12:39:54.829Z,64.90
2023-03-20T12:41:19.865Z,65.02
2023-03-20T12:42:54.755Z,65.81
2023-03-20T12:44:19.851Z,65.09
2023-03-20T12:46:05.956Z,65.15
2023-03-20T12:47:40.000Z,65.58
2023-03-20T12:49:11.474Z,65.00
2023-03-20T12:50:39.487Z,63.59
2023-03-20T12:52:01.479Z,63.97
2023-03-20T12:53:16.333Z,64.29
2023-03-20T12:54:57.172Z,64.57
2023-03-20T12:56:32.524Z,63.72
2023-03-20T12:57:41.390Z,63.86
2023-03-20T12:58:52.236Z,64.15
2023-03-20T12:59:55.135Z,64.07
2023-03-20T13:01:04.160Z,64.62
2023-03-20T13:02:33.824Z,64.13
2023-03-20T13:03:58.543Z,63.08
2023-03-20T13:05:22.455Z,63.54
2023-03-20T13:06:40.686Z,63.17
2023-03-20T13:08:00.084Z,63.14
2023-03-20T13:09:44.681Z,62.73
2023-03-20T13:11:29.531Z,62.40
2023-03-20T13:13:01.959Z,62.30
2023-03-20T13:14:31.758Z,62.10
2023-03-20T13:15:49.893Z,61.83
2023-03-20T13:17:13.714Z,61.70
2023-03-20T13:18:37.341Z,61.87
2023-03-20T13:20:12.028Z,61.34
2023-03-20T13:21:38.291Z,61.43
2023-03-20T13:23:18.154Z,61.74
2023-03-20T13:25:02.931Z,62.51
2023-03-20T13:26:18.200Z,63.28
2023-03-20T13:27:23.814Z,63.26
2023-03-20T13:28:42.083Z,63.46
2023-03-20T13:30:07.484Z,63.69
2023-03-20T13:31:27.840Z,63.71
2023-03-20T13:32:42.033Z,63.78
2023-03-20T13:33:56.640Z,63.92
2023-03-20T13:35:10.375Z,64.03
2023-03-20T13:36:30.316Z,64.39
2023-03-20T13:37:44.894Z,64.84
2023-03-20T13:39:25.833Z,64.92
2023-03-20T13:40:34.162Z,65.45
2023-03-20T13:41:39.190Z,65.62
2023-03-20T13:42:51.097Z,65.69
2023-03-20T13:44:01.132Z,66.03
2023-03-20T13:45:31.778Z,66.55
2023-03-20T13:48:28.619Z,67.33
2023-03-20T13:50:05.153Z,67.56
2023-03-20T13:51:13.506Z,67.74
2023-03-20T13:52:28.892Z,68.13
2023-03-20T13:53:43.883Z,68.02
2023-03-20T13:55:01.325Z,68.36
2023-03-20T13:56:22.393Z,68.75
2023-03-20T13:57:44.767Z,69.47
2023-03-20T13:59:23.407Z,68.98
2023-03-20T14:00:28.582Z,69.47
2023-03-20T14:02:22.392Z,69.93
2023-03-20T14:03:29.475Z,70.07
2023-03-20T14:04:34.085Z,70.02
2023-03-20T14:05:39.998Z,70.13
2023-03-20T14:06:58.301Z,70.45
2023-03-20T14:08:21.839Z,70.74
2023-03-20T14:09:36.599Z,71.12
2023-03-20T14:10:40.714Z,71.37
2023-03-20T14:11:44.380Z,71.07
2023-03-20T14:12:59.868Z,71.58
2023-03-20T14:14:19.976Z,71.30
2023-03-20T14:15:28.029Z,71.70
2023-03-20T14:16:31.371Z,71.79
2023-03-20T14:17:34.450Z,71.82
2023-03-20T14:18:38.300Z,72.10
2023-03-20T14:19:41.587Z,71.97
2023-03-20T14:21:01.359Z,72.00
2023-03-20T14:22:07.034Z,72.37
2023-03-20T14:23:30.051Z,72.50
2023-03-20T14:24:37.912Z,72.82
2023-03-20T14:25:46.475Z,73.07
2023-03-20T14:27:02.029Z,73.19
2023-03-20T14:28:11.014Z,73.00
2023-03-20T14:29:13.814Z,73.81
2023-03-20T14:30:32.068Z,73.73
2023-03-20T14:31:38.516Z,74.20
2023-03-20T14:32:58.040Z,74.23
2023-03-20T14:34:12.383Z,73.74
2023-03-20T14:35:17.966Z,74.34
2023-03-20T14:36:27.523Z,74.12
2023-03-20T14:37:33.639Z,75.29
2023-03-20T14:38:45.180Z,74.56
2023-03-20T14:39:56.965Z,74.92
2023-03-20T14:41:15.878Z,75.07
2023-03-20T14:42:50.179Z,75.04
2023-03-20T14:43:58.537Z,75.42
2023-03-20T14:45:13.772Z,75.20
2023-03-20T14:46:31.837Z,75.60
2023-03-20T14:48:01.985Z,75.50
2023-03-20T14:49:22.958Z,75.93
2023-03-20T14:50:39.834Z,76.32
2023-03-20T14:51:48.063Z,76.26
2023-03-20T14:53:06.939Z,75.72
2023-03-20T14:54:22.311Z,76.27
2023-03-20T14:55:25.386Z,76.53
2023-03-20T14:56:33.970Z,76.43
2023-03-20T14:57:54.776Z,76.65
2023-03-20T14:59:03.330Z,76.78
2023-03-20T15:00:18.159Z,76.40
2023-03-20T15:01:21.973Z,76.74
2023-03-20T15:02:28.839Z,76.65
2023-03-20T15:03:32.962Z,76.56
2023-03-20T15:04:42.139Z,76.80
2023-03-20T15:05:46.106Z,76.51
2023-03-20T15:06:54.899Z,77.06
2023-03-20T15:08:04.942Z,76.78
2023-03-20T15:09:10.702Z,77.08
2023-03-20T15:10:13.659Z,76.79
2023-03-20T15:11:17.162Z,76.67
2023-03-20T15:12:24.986Z,76.85
2023-03-20T15:13:28.962Z,76.96
2023-03-20T15:14:41.986Z,76.88
2023-03-20T15:15:54.337Z,77.14
2023-03-20T15:17:00.352Z,76.86